Time;durP1;ratioP1;P1;durP2;ratioP2;P2;SDS_P1;SDS_P2;PMS_P1;PMS_P2;Temp;Humidity;BMP_temperature;BMP_pressure;BME280_temperature;BME280_humidity;BME280_pressure;Samples;Min_cycle;Max_cycle;Signal;HPM_P1;HPM_P2
2020/12/05 00:00:07;;;;;;;41.95;28.92;;;;;;;-0.55;89.61;93365.47;1053000;28;20035;-78
2020/12/05 00:00:37;;;;;;;39.30;26.73;;;;;;;-0.57;89.94;93371.94;1053046;28;20008;-78
2020/12/05 00:01:08;;;;;;;42.15;28.58;;;;;;;-0.51;90.70;93366.53;1053218;28;20023;-77
2020/12/05 00:01:38;;;;;;;39.78;27.67;;;;;;;-0.55;90.13;93362.06;1053082;28;20032;-78
2020/12/05 00:02:09;;;;;;;40.30;28.25;;;;;;;-0.54;90.18;93361.03;1049066;28;20099;-78
2020/12/05 00:02:39;;;;;;;40.28;27.38;;;;;;;-0.59;89.92;93361.78;1044767;28;20021;-79
2020/12/05 00:03:10;;;;;;;34.25;25.25;;;;;;;-0.58;89.63;93359.97;1040716;28;20025;-78
2020/12/05 00:03:40;;;;;;;40.17;27.23;;;;;;;-0.56;89.33;93369.09;1032593;28;20100;-79
2020/12/05 00:04:11;;;;;;;35.95;26.50;;;;;;;-0.54;89.73;93361.81;1036703;28;20017;-79
2020/12/05 00:04:41;;;;;;;35.47;26.30;;;;;;;-0.52;90.21;93364.19;1044770;28;20477;-80
2020/12/05 00:05:12;;;;;;;41.80;28.00;;;;;;;-0.58;89.76;93358.16;1049119;27;20028;-79
2020/12/05 00:05:42;;;;;;;36.53;26.23;;;;;;;-0.54;89.17;93356.63;1057206;28;20020;-78
2020/12/05 00:06:13;;;;;;;39.10;27.00;;;;;;;-0.46;90.04;93361.38;1052882;28;20016;-79
2020/12/05 00:06:44;;;;;;;38.90;26.90;;;;;;;-0.51;89.18;93361.31;1048867;28;20013;-80
2020/12/05 00:07:14;;;;;;;38.58;27.92;;;;;;;-0.52;89.18;93354.56;1044643;28;20048;-79
2020/12/05 00:07:44;;;;;;;39.38;27.13;;;;;;;-0.54;88.90;93351.41;1044822;28;20075;-80
2020/12/05 00:08:15;;;;;;;41.35;27.20;;;;;;;-0.62;89.13;93355.25;1048955;28;20465;-80
2020/12/05 00:08:47;;;;;;;37.72;27.42;;;;;;;-0.64;88.93;93356.53;1048998;28;20016;-79
2020/12/05 00:09:17;;;;;;;41.83;27.88;;;;;;;-0.65;90.30;93354.94;1053186;28;20430;-81
2020/12/05 00:09:48;;;;;;;40.85;27.58;;;;;;;-0.58;91.04;93354.78;1052913;28;20020;-79
2020/12/05 00:10:18;;;;;;;41.55;27.70;;;;;;;-0.63;89.77;93358.88;1053122;28;20028;-79
2020/12/05 00:10:48;;;;;;;41.40;28.00;;;;;;;-0.64;89.20;93352.09;1052980;28;20020;-80
2020/12/05 00:11:26;;;;;;;40.10;27.50;;;;;;;-0.68;89.91;93337.25;1052893;28;20047;-79
2020/12/05 00:11:57;;;;;;;42.45;28.98;;;;;;;-0.68;89.72;93335.44;1052970;28;20073;-79
2020/12/05 00:12:27;;;;;;;41.33;28.27;;;;;;;-0.76;89.62;93338.47;1053028;28;20081;-79
2020/12/05 00:12:57;;;;;;;41.80;28.98;;;;;;;-0.75;90.02;93342.63;1048721;28;20025;-80
2020/12/05 00:13:28;;;;;;;37.67;27.50;;;;;;;-0.75;89.53;93340.03;1048474;28;20039;-79
2020/12/05 00:13:59;;;;;;;45.10;29.80;;;;;;;-0.81;89.80;93345.44;1052819;28;20035;-80
2020/12/05 00:14:29;;;;;;;43.10;29.17;;;;;;;-0.79;91.42;93344.16;1054740;28;20012;-80
2020/12/05 00:15:00;;;;;;;41.33;28.63;;;;;;;-0.76;91.23;93338.47;1053147;28;20404;-79
2020/12/05 00:15:30;;;;;;;44.50;30.70;;;;;;;-0.80;90.97;93337.41;1053036;28;20008;-79
2020/12/05 00:16:01;;;;;;;42.20;28.17;;;;;;;-0.81;91.28;93330.63;1053038;28;20650;-80
2020/12/05 00:16:32;;;;;;;43.53;29.73;;;;;;;-0.82;90.64;93329.06;1048971;28;20134;-79
2020/12/05 00:17:02;;;;;;;41.97;28.67;;;;;;;-0.82;90.47;93318.66;1052935;28;20061;-79
2020/12/05 00:17:33;;;;;;;38.70;27.95;;;;;;;-0.80;90.27;93327.00;1052960;28;20016;-79
2020/12/05 00:18:03;;;;;;;42.15;28.60;;;;;;;-0.76;91.01;93317.66;1052889;28;20050;-80
2020/12/05 00:18:34;;;;;;;44.92;29.55;;;;;;;-0.81;90.99;93312.41;1053038;28;20012;-80
2020/12/05 00:19:04;;;;;;;40.72;29.00;;;;;;;-0.79;90.83;93307.75;1048749;28;20020;-79
2020/12/05 00:19:35;;;;;;;40.65;29.77;;;;;;;-0.78;90.74;93327.53;1048841;28;20017;-79
2020/12/05 00:20:05;;;;;;;41.67;29.75;;;;;;;-0.80;90.61;93324.41;1052950;28;20020;-79
2020/12/05 00:20:36;;;;;;;46.05;30.85;;;;;;;-0.83;91.14;93339.69;1048919;28;20023;-80
2020/12/05 00:21:07;;;;;;;42.45;29.42;;;;;;;-0.80;91.71;93336.59;1052926;28;20012;-80
2020/12/05 00:21:37;;;;;;;45.33;31.20;;;;;;;-0.75;91.47;93337.44;1052903;28;20016;-79
2020/12/05 00:22:08;;;;;;;43.22;30.42;;;;;;;-0.78;91.02;93339.75;1052947;28;20062;-79
2020/12/05 00:22:39;;;;;;;45.75;30.15;;;;;;;-0.77;90.28;93351.72;1053208;28;20020;-80
2020/12/05 00:23:09;;;;;;;41.72;29.58;;;;;;;-0.79;90.84;93349.38;1049920;28;20086;-80
2020/12/05 00:23:39;;;;;;;40.60;28.67;;;;;;;-0.78;90.54;93352.75;1052884;28;20039;-80
2020/12/05 00:24:10;;;;;;;43.13;29.63;;;;;;;-0.78;89.82;93342.34;1052965;28;20077;-80
2020/12/05 00:24:41;;;;;;;44.97;31.13;;;;;;;-0.83;89.49;93337.06;1052999;28;20453;-81
2020/12/05 00:25:11;;;;;;;47.92;31.05;;;;;;;-1.00;90.23;93348.38;1052995;28;20119;-82
2020/12/05 00:25:41;;;;;;;42.00;29.70;;;;;;;-1.10;90.56;93350.84;1052902;28;20019;-81
2020/12/05 00:26:15;;;;;;;42.35;29.58;;;;;;;-1.15;90.74;93343.00;1048692;28;20067;-81
2020/12/05 00:26:52;;;;;;;45.78;30.90;;;;;;;-1.11;91.93;93345.91;1044582;28;20014;-81
2020/12/05 00:27:23;;;;;;;53.03;30.42;;;;;;;-1.12;92.31;93346.94;1044591;28;20112;-79
2020/12/05 00:27:54;;;;;;;46.65;31.15;;;;;;;-1.21;91.67;93346.56;1047584;28;20429;-79
2020/12/05 00:28:24;;;;;;;43.10;30.80;;;;;;;-1.15;92.72;93352.63;1052856;28;20020;-79
2020/12/05 00:28:55;;;;;;;41.53;29.02;;;;;;;-1.00;92.86;93350.97;1052754;28;20065;-79
2020/12/05 00:29:25;;;;;;;42.63;29.13;;;;;;;-0.99;92.48;93343.94;1052866;28;20039;-79
2020/12/05 00:29:56;;;;;;;46.75;30.35;;;;;;;-0.96;92.28;93343.44;1048679;28;20019;-79
2020/12/05 00:30:28;;;;;;;45.45;29.65;;;;;;;-0.92;92.34;93339.34;1048646;28;20036;-79
2020/12/05 00:30:59;;;;;;;43.28;29.70;;;;;;;-0.95;91.86;93334.63;1048743;28;20026;-81
2020/12/05 00:31:29;;;;;;;45.08;29.80;;;;;;;-0.99;91.91;93333.56;1046604;28;21422;-82
2020/12/05 00:32:01;;;;;;;45.47;30.50;;;;;;;-0.96;92.33;93317.44;1049771;28;20028;-81
2020/12/05 00:32:31;;;;;;;42.25;28.58;;;;;;;-0.96;91.62;93317.44;1052406;28;20012;-81
2020/12/05 00:33:02;;;;;;;40.03;28.15;;;;;;;-0.93;90.93;93311.78;1052847;28;20457;-81
2020/12/05 00:33:33;;;;;;;42.80;29.98;;;;;;;-1.04;91.17;93304.91;1052841;28;20299;-81
2020/12/05 00:34:03;;;;;;;46.53;30.75;;;;;;;-1.04;91.29;93299.72;1052751;28;20020;-81
2020/12/05 00:34:34;;;;;;;43.35;29.95;;;;;;;-1.09;91.56;93297.03;1044626;28;20016;-80
2020/12/05 00:35:05;;;;;;;44.45;30.75;;;;;;;-1.08;92.25;93309.78;1048623;28;20092;-81
2020/12/05 00:35:35;;;;;;;43.35;29.55;;;;;;;-1.09;92.33;93305.63;1044356;28;20041;-81
2020/12/05 00:36:06;;;;;;;46.70;30.40;;;;;;;-1.11;91.73;93305.09;1044655;28;20482;-80
2020/12/05 00:36:37;;;;;;;44.55;30.20;;;;;;;-1.10;92.10;93298.06;1048641;28;20012;-80
2020/12/05 00:37:07;;;;;;;44.10;30.30;;;;;;;-1.11;92.46;93297.28;1048735;28;20012;-81
2020/12/05 00:37:38;;;;;;;41.45;30.58;;;;;;;-1.10;92.77;93296.25;1052962;28;20125;-80
2020/12/05 00:38:08;;;;;;;45.35;31.38;;;;;;;-1.09;92.83;93297.03;1052822;28;20505;-81
2020/12/05 00:38:38;;;;;;;45.65;30.70;;;;;;;-1.09;92.71;93304.84;1048760;28;20021;-81
2020/12/05 00:39:09;;;;;;;45.35;30.88;;;;;;;-1.00;92.84;93290.38;1048684;28;20012;-80
2020/12/05 00:39:39;;;;;;;46.63;30.58;;;;;;;-0.94;92.75;93292.81;1052708;28;20127;-81
2020/12/05 00:40:10;;;;;;;44.65;31.35;;;;;;;-1.03;92.11;93296.88;1052890;28;20020;-80
2020/12/05 00:40:41;;;;;;;46.05;30.67;;;;;;;-1.08;91.97;93296.81;1053175;28;20039;-81
2020/12/05 00:41:12;;;;;;;45.28;31.15;;;;;;;-1.10;91.86;93295.47;1052652;28;20016;-80
2020/12/05 00:41:42;;;;;;;44.72;30.83;;;;;;;-1.08;91.74;93296.00;1044326;28;20032;-80
2020/12/05 00:42:13;;;;;;;45.10;31.67;;;;;;;-1.09;90.70;93291.84;1044597;28;20025;-80
2020/12/05 00:42:43;;;;;;;44.08;30.23;;;;;;;-1.14;91.39;93297.78;1048811;28;20113;-80
2020/12/05 00:43:14;;;;;;;44.72;31.00;;;;;;;-1.19;91.33;93298.50;1053001;28;20077;-80
2020/12/05 00:43:44;;;;;;;47.28;31.77;;;;;;;-1.17;92.25;93311.28;1052144;28;20142;-80
2020/12/05 00:44:15;;;;;;;43.97;30.42;;;;;;;-1.11;92.61;93325.09;1050531;28;20408;-80
2020/12/05 00:44:45;;;;;;;45.03;31.30;;;;;;;-1.09;92.69;93323.81;1048042;28;20093;-80
2020/12/05 00:45:16;;;;;;;46.08;31.63;;;;;;;-1.08;91.98;93338.38;1048513;28;20024;-80
2020/12/05 00:45:46;;;;;;;47.33;32.13;;;;;;;-1.03;92.08;93348.06;1053089;28;20020;-80
2020/12/05 00:46:16;;;;;;;47.20;32.50;;;;;;;-1.07;91.73;93349.56;1048608;28;20031;-80
2020/12/05 00:46:47;;;;;;;49.00;32.20;;;;;;;-1.05;92.07;93344.94;1048584;28;20488;-80
2020/12/05 00:47:18;;;;;;;45.72;30.70;;;;;;;-1.12;91.38;93346.94;1044594;28;20100;-80
2020/12/05 00:47:48;;;;;;;44.80;29.70;;;;;;;-1.07;91.21;93346.97;1044576;28;20114;-81
2020/12/05 00:48:18;;;;;;;43.35;30.23;;;;;;;-1.09;91.53;93349.03;1048636;28;20519;-81
2020/12/05 00:48:49;;;;;;;48.95;31.63;;;;;;;-1.07;91.65;93336.56;1044377;28;20078;-81
2020/12/05 00:49:19;;;;;;;49.20;32.88;;;;;;;-1.13;91.51;93343.53;1044444;28;20162;-81
2020/12/05 00:49:50;;;;;;;45.15;31.52;;;;;;;-1.21;90.88;93343.97;1044617;28;20028;-79
2020/12/05 00:50:20;;;;;;;48.78;30.52;;;;;;;-1.18;91.04;93330.50;1044428;28;20033;-80
2020/12/05 00:50:50;;;;;;;45.17;31.80;;;;;;;-1.20;90.97;93335.13;1048457;28;20024;-80
2020/12/05 00:51:21;;;;;;;46.60;31.95;;;;;;;-1.28;91.98;93331.19;1045792;28;21086;-80
2020/12/05 00:51:51;;;;;;;45.67;31.67;;;;;;;-1.23;92.35;93333.81;1046349;28;20032;-80
2020/12/05 00:52:23;;;;;;;45.42;31.02;;;;;;;-1.19;92.62;93337.50;1052859;28;20057;-80
2020/12/05 00:52:53;;;;;;;43.90;30.23;;;;;;;-1.22;92.84;93339.81;1052630;28;20400;-80
2020/12/05 00:53:24;;;;;;;42.17;30.05;;;;;;;-1.17;92.59;93344.28;1052700;28;20040;-80
2020/12/05 00:53:54;;;;;;;50.00;32.10;;;;;;;-1.15;92.69;93361.19;1048511;28;20017;-80
2020/12/05 00:54:24;;;;;;;44.30;30.73;;;;;;;-1.15;92.30;93358.59;1048157;28;20013;-80
2020/12/05 00:54:55;;;;;;;44.70;31.00;;;;;;;-1.25;91.85;93361.88;1043642;28;20025;-80
2020/12/05 00:55:25;;;;;;;44.83;30.27;;;;;;;-1.21;91.58;93368.13;1048421;28;20041;-80
2020/12/05 00:55:56;;;;;;;45.55;31.08;;;;;;;-1.24;92.21;93371.22;1055510;28;20027;-80
2020/12/05 00:56:26;;;;;;;49.58;32.35;;;;;;;-1.32;92.07;93371.63;1049912;28;20020;-80
2020/12/05 00:56:56;;;;;;;44.78;31.48;;;;;;;-1.28;92.83;93377.94;1056181;28;20015;-80
2020/12/05 00:57:28;;;;;;;46.88;30.88;;;;;;;-1.32;92.37;93373.47;1056940;28;20095;-80
2020/12/05 00:57:58;;;;;;;44.45;30.95;;;;;;;-1.33;91.61;93380.47;1052707;28;20684;-80
2020/12/05 00:58:34;;;;;;;46.33;29.25;;;;;;;-1.31;91.94;93383.59;1052720;28;20085;-81
2020/12/05 00:59:04;;;;;;;45.80;30.08;;;;;;;-1.35;91.82;93382.53;1045580;28;20028;-80
2020/12/05 00:59:35;;;;;;;46.10;31.83;;;;;;;-1.35;91.82;93382.53;1045266;28;20059;-80
2020/12/05 01:00:06;;;;;;;46.10;31.95;;;;;;;-1.39;92.62;93380.66;1048435;28;20027;-80
2020/12/05 01:00:36;;;;;;;45.45;31.73;;;;;;;-1.31;93.16;93381.00;1052334;28;20016;-80
2020/12/05 01:01:06;;;;;;;46.65;33.15;;;;;;;-1.33;93.01;93383.06;1056746;28;20031;-80
2020/12/05 01:01:37;;;;;;;45.30;30.80;;;;;;;-1.34;93.21;93378.91;1048443;28;20055;-80
2020/12/05 01:02:07;;;;;;;48.72;32.40;;;;;;;-1.33;92.62;93380.47;1043933;28;20032;-80
2020/12/05 01:02:38;;;;;;;47.60;31.55;;;;;;;-1.39;92.78;93376.25;1043273;28;20041;-80
2020/12/05 01:03:08;;;;;;;44.80;30.70;;;;;;;-1.37;92.04;93371.59;1039656;28;20026;-79
2020/12/05 01:03:40;;;;;;;48.85;31.80;;;;;;;-1.40;92.08;93373.91;1046715;28;20036;-80
2020/12/05 01:04:11;;;;;;;49.53;31.88;;;;;;;-1.40;92.04;93373.91;1046003;28;20162;-80
2020/12/05 01:04:41;;;;;;;43.35;29.75;;;;;;;-1.39;92.77;93365.06;1052484;28;20131;-80
2020/12/05 01:05:12;;;;;;;46.30;30.65;;;;;;;-1.43;92.18;93366.56;1052985;28;20043;-80
2020/12/05 01:05:42;;;;;;;45.40;30.60;;;;;;;-1.37;91.79;93370.81;1048550;28;20420;-80
2020/12/05 01:06:13;;;;;;;42.40;29.25;;;;;;;-1.36;91.30;93364.59;1048516;28;20078;-80
2020/12/05 01:06:44;;;;;;;44.65;30.60;;;;;;;-1.39;91.63;93375.47;1048513;28;20074;-80
2020/12/05 01:07:14;;;;;;;47.22;32.53;;;;;;;-1.41;92.25;93369.72;1048705;28;20017;-79
2020/12/05 01:07:45;;;;;;;47.05;31.48;;;;;;;-1.39;91.74;93375.47;1052606;28;20405;-80
2020/12/05 01:08:15;;;;;;;45.78;30.83;;;;;;;-1.41;92.03;93367.91;1052628;28;20024;-80
2020/12/05 01:08:46;;;;;;;44.50;31.00;;;;;;;-1.45;92.07;93366.81;1052646;28;20016;-77
2020/12/05 01:09:16;;;;;;;43.55;29.33;;;;;;;-1.39;91.85;93371.06;1052617;28;20016;-77
2020/12/05 01:09:46;;;;;;;42.95;30.33;;;;;;;-1.42;91.72;93366.34;1048405;28;20016;-77
2020/12/05 01:10:17;;;;;;;40.88;28.98;;;;;;;-1.32;92.83;93382.03;1048428;28;20021;-77
2020/12/05 01:10:47;;;;;;;46.65;31.13;;;;;;;-1.36;92.45;93391.34;1044257;28;20020;-77
2020/12/05 01:11:18;;;;;;;45.72;31.13;;;;;;;-1.36;91.58;93391.34;1044510;28;20021;-77
2020/12/05 01:11:49;;;;;;;45.50;31.10;;;;;;;-1.48;91.14;93388.88;1044208;28;20497;-77
2020/12/05 01:12:20;;;;;;;45.33;31.60;;;;;;;-1.52;92.00;93392.97;1044466;28;20079;-77
2020/12/05 01:12:50;;;;;;;47.53;29.90;;;;;;;-1.50;91.86;93397.94;1048452;28;20527;-78
2020/12/05 01:13:21;;;;;;;41.28;28.45;;;;;;;-1.48;91.78;93401.06;1048340;28;20033;-77
2020/12/05 01:13:51;;;;;;;44.17;29.83;;;;;;;-1.42;91.67;93396.72;1052660;28;20222;-77
2020/12/05 01:14:21;;;;;;;41.40;29.50;;;;;;;-1.38;91.89;93390.81;1048448;28;20536;-78
2020/12/05 01:14:52;;;;;;;40.80;29.30;;;;;;;-1.45;91.51;93395.38;1044223;28;20421;-77
2020/12/05 01:15:22;;;;;;;44.00;29.02;;;;;;;-1.36;92.90;93400.97;1044457;28;20025;-77
2020/12/05 01:15:53;;;;;;;39.63;28.70;;;;;;;-1.39;92.28;93406.66;1036017;28;20025;-78
2020/12/05 01:16:24;;;;;;;41.85;29.17;;;;;;;-1.42;91.66;93405.31;1036253;28;20024;-78
2020/12/05 01:16:54;;;;;;;42.40;28.60;;;;;;;-1.39;91.52;93402.22;1044306;28;20051;-77
2020/12/05 01:17:25;;;;;;;41.92;30.60;;;;;;;-1.38;91.79;93411.59;1044680;28;20021;-77
2020/12/05 01:17:55;;;;;;;48.58;31.25;;;;;;;-1.43;91.75;93419.31;1048437;28;20012;-77
2020/12/05 01:18:25;;;;;;;41.17;28.30;;;;;;;-1.41;91.66;93424.28;1046023;28;20493;-78
2020/12/05 01:18:56;;;;;;;42.55;29.02;;;;;;;-1.41;90.97;93425.06;1045130;28;20024;-81
2020/12/05 01:19:27;;;;;;;43.47;29.77;;;;;;;-1.40;92.32;93431.06;1044406;28;20013;-79
2020/12/05 01:19:57;;;;;;;42.95;28.45;;;;;;;-1.42;91.54;93439.09;1048454;28;20021;-78
2020/12/05 01:20:28;;;;;;;43.08;29.60;;;;;;;-1.43;91.77;93431.50;1052948;28;20400;-78
2020/12/05 01:20:58;;;;;;;46.17;30.20;;;;;;;-1.49;92.06;93428.84;1052938;28;20019;-79
2020/12/05 01:21:28;;;;;;;47.97;31.45;;;;;;;-1.51;91.63;93436.09;1053008;28;20035;-79
2020/12/05 01:21:59;;;;;;;43.88;28.83;;;;;;;-1.49;91.89;93438.47;1052858;28;20480;-79
2020/12/05 01:22:29;;;;;;;41.20;29.15;;;;;;;-1.40;92.74;93437.03;1052879;28;20031;-79
2020/12/05 01:22:59;;;;;;;41.50;28.63;;;;;;;-1.40;91.95;93437.03;1052634;28;20016;-79
2020/12/05 01:23:30;;;;;;;42.03;29.45;;;;;;;-1.40;92.19;93444.03;1048534;28;20025;-79
2020/12/05 01:24:00;;;;;;;42.22;29.55;;;;;;;-1.40;92.65;93442.22;1048360;28;20017;-78
2020/12/05 01:24:31;;;;;;;44.83;30.35;;;;;;;-1.33;92.08;93447.25;1044266;28;20032;-79
2020/12/05 01:25:01;;;;;;;43.63;28.80;;;;;;;-1.36;91.41;93447.72;1044495;28;20181;-78
2020/12/05 01:25:32;;;;;;;42.20;29.25;;;;;;;-1.37;92.32;93444.34;1048500;28;20392;-78
2020/12/05 01:26:03;;;;;;;42.03;28.42;;;;;;;-1.42;92.50;93436.50;1048589;28;20020;-78
2020/12/05 01:26:33;;;;;;;41.47;28.55;;;;;;;-1.35;92.97;93439.69;1052520;28;20480;-78
2020/12/05 01:27:03;;;;;;;43.83;30.40;;;;;;;-1.36;92.40;93437.34;1048734;28;20023;-79
2020/12/05 01:27:34;;;;;;;44.38;28.73;;;;;;;-1.40;92.29;93442.22;1052796;28;20095;-79
2020/12/05 01:28:05;;;;;;;41.10;28.33;;;;;;;-1.44;91.36;93440.34;1048546;28;20138;-78
2020/12/05 01:28:35;;;;;;;44.92;30.23;;;;;;;-1.45;91.84;93429.16;1048591;28;20063;-79
2020/12/05 01:29:05;;;;;;;41.97;28.95;;;;;;;-1.45;91.25;93418.75;1052517;28;20008;-79
2020/12/05 01:29:36;;;;;;;43.42;29.67;;;;;;;-1.47;91.94;93420.81;1052777;28;20469;-79
2020/12/05 01:30:06;;;;;;;46.65;30.60;;;;;;;-1.52;91.95;93416.34;1053080;28;20020;-79
2020/12/05 01:30:37;;;;;;;42.60;28.48;;;;;;;-1.49;92.68;93413.28;1052931;28;20032;-79
2020/12/05 01:31:10;;;;;;;47.20;30.60;;;;;;;-1.48;92.14;93424.44;1052748;28;20441;-79
2020/12/05 01:31:40;;;;;;;40.78;28.95;;;;;;;-1.46;91.77;93422.38;1052816;28;20024;-79
2020/12/05 01:32:11;;;;;;;44.25;28.80;;;;;;;-1.50;91.20;93421.31;1048458;28;20453;-78
2020/12/05 01:32:42;;;;;;;48.55;30.60;;;;;;;-1.52;91.17;93429.34;1049148;28;20021;-78
2020/12/05 01:33:12;;;;;;;43.55;29.17;;;;;;;-1.49;91.43;93433.25;1048510;28;20024;-79
2020/12/05 01:33:42;;;;;;;42.92;30.10;;;;;;;-1.53;91.04;93432.19;1044567;28;20036;-79
2020/12/05 01:34:13;;;;;;;44.83;30.27;;;;;;;-1.54;91.55;93428.81;1044281;28;20068;-78
2020/12/05 01:34:43;;;;;;;44.35;31.15;;;;;;;-1.52;92.39;93433.75;1040386;28;20108;-79
2020/12/05 01:35:14;;;;;;;45.15;29.58;;;;;;;-1.45;92.30;93433.56;1040257;28;20018;-79
2020/12/05 01:35:44;;;;;;;46.25;30.00;;;;;;;-1.51;92.18;93443.13;1040289;28;20017;-79
2020/12/05 01:36:14;;;;;;;47.60;32.10;;;;;;;-1.62;91.61;93444.00;1044392;28;20029;-79
2020/12/05 01:36:45;;;;;;;46.67;30.63;;;;;;;-1.54;92.96;93443.56;1040189;28;20017;-79
2020/12/05 01:37:16;;;;;;;40.78;29.23;;;;;;;-1.53;92.64;93456.34;1044391;28;20017;-79
2020/12/05 01:37:46;;;;;;;47.25;30.45;;;;;;;-1.54;91.79;93459.97;1048316;28;20024;-79
2020/12/05 01:38:17;;;;;;;43.08;28.70;;;;;;;-1.53;91.24;93458.94;1044417;28;20017;-78
2020/12/05 01:38:47;;;;;;;41.33;29.75;;;;;;;-1.51;90.91;93459.47;1048514;28;20021;-78
2020/12/05 01:39:17;;;;;;;41.35;28.48;;;;;;;-1.54;91.63;93453.97;1048485;28;20070;-78
2020/12/05 01:39:48;;;;;;;47.63;29.63;;;;;;;-1.48;92.62;93448.63;1048604;28;20089;-78
2020/12/05 01:40:18;;;;;;;46.75;29.05;;;;;;;-1.52;91.37;93449.34;1044362;28;20071;-78
2020/12/05 01:40:58;;;;;;;44.58;30.33;;;;;;;-1.59;91.44;93443.50;1044395;28;20087;-78
2020/12/05 01:41:29;;;;;;;40.78;28.45;;;;;;;-1.53;91.74;93452.97;1040356;28;20049;-78
2020/12/05 01:41:59;;;;;;;40.03;28.65;;;;;;;-1.52;92.02;93449.34;1043090;28;20118;-78
2020/12/05 01:42:30;;;;;;;45.45;29.58;;;;;;;-1.54;92.29;93446.97;1048544;28;20091;-78
2020/12/05 01:43:00;;;;;;;45.35;30.67;;;;;;;-1.57;92.07;93449.25;1048463;28;20104;-78
2020/12/05 01:43:31;;;;;;;44.53;29.23;;;;;;;-1.53;92.49;93456.34;1048479;28;20074;-78
2020/12/05 01:44:01;;;;;;;42.13;28.40;;;;;;;-1.53;91.72;93458.16;1044471;28;20163;-78
2020/12/05 01:44:32;;;;;;;43.45;29.88;;;;;;;-1.53;91.36;93452.97;1044421;28;20025;-78
2020/12/05 01:45:02;;;;;;;46.17;30.67;;;;;;;-1.52;91.63;93451.94;1040414;28;20018;-79
2020/12/05 01:45:33;;;;;;;43.65;29.88;;;;;;;-1.61;91.07;93440.38;1044501;28;20021;-78
2020/12/05 01:46:04;;;;;;;43.45;29.17;;;;;;;-1.52;92.33;93444.94;1048621;28;20477;-78
2020/12/05 01:46:38;;;;;;;48.00;31.05;;;;;;;-1.58;91.36;93458.84;1044395;28;20036;-78
2020/12/05 01:47:09;;;;;;;44.00;29.50;;;;;;;-1.58;91.91;93461.44;1048619;28;20016;-78
2020/12/05 01:47:40;;;;;;;46.53;31.17;;;;;;;-1.52;91.14;93459.72;1040266;28;20551;-78
2020/12/05 01:48:11;;;;;;;45.38;30.42;;;;;;;-1.64;91.32;93456.44;1041052;28;20037;-79
2020/12/05 01:48:41;;;;;;;45.78;29.35;;;;;;;-1.70;91.35;93457.38;1040263;28;20025;-79
2020/12/05 01:49:14;;;;;;;45.65;30.58;;;;;;;-1.63;91.29;93458.00;1036379;28;20032;-78
2020/12/05 01:49:44;;;;;;;47.63;30.08;;;;;;;-1.61;90.87;93459.34;1040242;28;20014;-78
2020/12/05 01:50:16;;;;;;;43.78;29.67;;;;;;;-1.57;92.46;93455.22;1040347;28;20055;-78
2020/12/05 01:50:47;;;;;;;46.17;30.63;;;;;;;-1.50;92.26;93452.47;1040833;28;20017;-78
2020/12/05 01:51:17;;;;;;;45.03;30.25;;;;;;;-1.57;91.70;93455.22;1044566;28;20009;-78
2020/12/05 01:51:47;;;;;;;42.40;29.25;;;;;;;-1.53;91.36;93452.97;1044704;28;20041;-77
2020/12/05 01:52:18;;;;;;;44.97;30.15;;;;;;;-1.55;90.82;93457.59;1044480;28;20386;-78
2020/12/05 01:52:49;;;;;;;43.47;30.13;;;;;;;-1.57;90.86;93459.63;1040260;28;20627;-79
2020/12/05 01:53:19;;;;;;;46.00;30.48;;;;;;;-1.60;90.84;93467.91;1036265;28;20022;-78
2020/12/05 01:53:50;;;;;;;43.03;30.23;;;;;;;-1.58;92.13;93473.66;1040222;28;20470;-77
2020/12/05 01:54:20;;;;;;;44.63;30.13;;;;;;;-1.59;92.11;93474.69;1032449;28;20537;-78
2020/12/05 01:54:51;;;;;;;43.97;30.05;;;;;;;-1.63;91.38;93481.38;1040311;28;20073;-78
2020/12/05 01:55:21;;;;;;;46.22;29.48;;;;;;;-1.60;91.03;93480.91;1040255;28;20456;-78
2020/12/05 01:55:52;;;;;;;45.03;30.10;;;;;;;-1.56;91.95;93477.59;1032297;28;20026;-79
2020/12/05 01:56:26;;;;;;;45.60;30.35;;;;;;;-1.52;91.35;93470.91;1036229;28;20017;-78
2020/12/05 01:57:00;;;;;;;42.70;28.73;;;;;;;-1.57;90.71;93454.44;1032495;28;20080;-78
2020/12/05 01:57:31;;;;;;;46.85;31.52;;;;;;;-1.72;90.81;93462.03;1038461;28;20085;-78
2020/12/05 01:58:01;;;;;;;45.97;31.10;;;;;;;-1.69;92.83;93464.13;1041250;28;20144;-78
2020/12/05 01:58:32;;;;;;;44.03;29.75;;;;;;;-1.69;91.61;93464.13;1049179;28;20393;-78
2020/12/05 01:59:02;;;;;;;43.60;29.88;;;;;;;-1.66;92.71;93455.84;1048505;28;20469;-78
2020/12/05 01:59:33;;;;;;;41.42;28.27;;;;;;;-1.68;92.22;93463.09;1048561;28;20025;-79
2020/12/05 02:00:04;;;;;;;43.72;29.17;;;;;;;-1.63;92.38;93465.81;1052558;28;20461;-78
2020/12/05 02:00:34;;;;;;;46.60;31.15;;;;;;;-1.63;91.63;93463.97;1040533;28;20022;-79
2020/12/05 02:01:05;;;;;;;46.83;31.08;;;;;;;-1.68;91.35;93455.31;1044314;28;20028;-78
2020/12/05 02:01:36;;;;;;;44.15;31.40;;;;;;;-1.68;92.05;93460.50;1036166;28;20463;-78
2020/12/05 02:02:06;;;;;;;46.42;31.08;;;;;;;-1.62;92.88;93475.16;1032361;28;20030;-78
2020/12/05 02:02:37;;;;;;;44.70;30.65;;;;;;;-1.50;92.79;93491.44;1040269;28;20101;-77
2020/12/05 02:03:07;;;;;;;50.88;31.90;;;;;;;-1.53;92.63;93490.13;1036398;28;20018;-78
2020/12/05 02:03:38;;;;;;;41.55;29.25;;;;;;;-1.53;91.64;93489.31;1044380;28;20067;-78
2020/12/05 02:04:09;;;;;;;45.45;30.55;;;;;;;-1.55;90.80;93501.75;1044353;28;20079;-78
2020/12/05 02:04:55;;;;;;;47.88;31.52;;;;;;;-1.61;91.10;93490.50;1044524;28;20017;-78
2020/12/05 02:05:33;;;;;;;44.83;29.60;;;;;;;-1.60;91.34;93506.88;1040260;28;20075;-79
2020/12/05 02:06:14;;;;;;;45.45;29.58;;;;;;;-1.64;91.33;93510.97;1043262;28;20437;-78
2020/12/05 02:07:21;;;;;;;45.17;29.73;;;;;;;-1.60;92.27;93520.66;1040417;28;20105;-79
2020/12/05 02:07:55;;;;;;;46.88;29.45;;;;;;;-1.61;92.05;93526.06;1044192;28;20035;-78
2020/12/05 02:08:53;;;;;;;44.22;28.35;;;;;;;-1.59;91.25;93524.03;1041702;28;20071;-78
2020/12/05 02:09:26;;;;;;;46.80;29.67;;;;;;;-1.56;90.85;93520.94;1048565;28;20037;-77
2020/12/05 02:09:57;;;;;;;45.40;29.58;;;;;;;-1.58;90.39;93513.41;1048399;28;20035;-78
2020/12/05 02:10:28;;;;;;;45.97;30.10;;;;;;;-1.58;90.64;93520.41;1052626;28;20024;-78
2020/12/05 02:10:58;;;;;;;48.47;31.25;;;;;;;-1.62;90.87;93514.13;1046910;28;20162;-78
2020/12/05 02:11:30;;;;;;;49.10;31.65;;;;;;;-1.66;90.87;93515.59;1040505;28;20132;-78
2020/12/05 02:12:06;;;;;;;49.05;32.58;;;;;;;-1.69;92.23;93516.84;1044196;28;20521;-78
2020/12/05 02:12:43;;;;;;;46.65;30.83;;;;;;;-1.78;91.90;93507.88;1036884;28;20474;-78
2020/12/05 02:13:18;;;;;;;49.20;32.65;;;;;;;-1.75;92.73;93520.41;1041792;28;20021;-78
2020/12/05 02:13:48;;;;;;;47.88;30.65;;;;;;;-1.68;92.23;93528.03;1036171;28;20375;-78
2020/12/05 02:14:20;;;;;;;47.45;31.55;;;;;;;-1.73;92.17;93520.97;1036031;28;20025;-79
2020/12/05 02:14:54;;;;;;;50.53;31.52;;;;;;;-1.75;92.78;93524.81;1041669;28;20572;-78
2020/12/05 02:15:26;;;;;;;46.33;30.25;;;;;;;-1.75;92.16;93524.81;1045073;28;20021;-79
2020/12/05 02:15:56;;;;;;;50.33;32.53;;;;;;;-1.73;91.49;93531.34;1044296;28;20021;-78
2020/12/05 02:16:27;;;;;;;46.35;32.00;;;;;;;-1.74;92.25;93537.56;1035966;28;20077;-79
2020/12/05 02:17:00;;;;;;;49.20;32.17;;;;;;;-1.81;91.84;93537.69;1031989;28;20022;-79
2020/12/05 02:17:31;;;;;;;49.30;32.53;;;;;;;-1.80;91.76;93541.88;1032655;28;20027;-78
2020/12/05 02:18:05;;;;;;;47.70;32.08;;;;;;;-1.74;91.52;93550.56;1032804;28;20081;-79
2020/12/05 02:18:35;;;;;;;46.75;30.40;;;;;;;-1.76;92.04;93550.00;1036925;28;20532;-78
2020/12/05 02:19:07;;;;;;;43.97;29.50;;;;;;;-1.78;91.71;93560.63;1031818;28;20019;-78
2020/12/05 02:19:48;;;;;;;45.72;31.55;;;;;;;-1.72;93.10;93578.88;1029470;28;20468;-78
2020/12/05 02:20:19;;;;;;;46.28;30.02;;;;;;;-1.75;92.60;93574.16;1041742;28;20010;-79
2020/12/05 02:20:49;;;;;;;45.38;29.92;;;;;;;-1.71;93.03;93576.03;1047710;28;20009;-79
2020/12/05 02:21:20;;;;;;;45.53;30.48;;;;;;;-1.73;92.25;93590.28;1049940;28;20101;-79
2020/12/05 02:21:51;;;;;;;48.72;30.92;;;;;;;-1.70;91.43;93588.00;1044034;28;20501;-78
2020/12/05 02:22:28;;;;;;;49.08;31.27;;;;;;;-1.75;91.75;93577.53;1040064;28;20190;-77
2020/12/05 02:23:17;;;;;;;46.08;31.23;;;;;;;-1.75;92.14;93574.94;1036056;28;20073;-77
2020/12/05 02:23:48;;;;;;;47.53;31.02;;;;;;;-1.77;92.08;93572.59;1036121;28;20034;-77